Latest Coastal Weather Observations for Hogan Island

IDV60701

Issued at 11:31 pm EDT Wednesday 7 December 2016 (issued every 10 minutes, with the page automatically refreshed every 10 minutes)

About coastal observations | Map of coastal stations | Coastal observations for VIC | Marine services | Other Formats
Station Details ID: 200838 Name: HOGAN ISLAND Lat: -39.22 Lon: 146.98 Height: 116.0 m
Data from the previous 72 hours. | See also: Recent months at Hogan Island
Date/Time
EDT
Temp
°C
Wind Pressure Rain since
9am
mm
Weather Cloud Vis
km
Sea
Height
m
Swell
Dir  Spd
kts
Gust
kts
hPa Trend Height
m
Period
s
Dir
07/11:30pm 13.7 NE 24 27 1008.6 - 0.0 - - - - - - -
07/11:00pm 13.6 NE 22 25 1009.2 - 0.0 - - - - - - -
07/10:30pm 13.6 NE 22 25 1009.8 - 0.0 - - - - - - -
07/10:00pm 13.2 NE 18 23 1010.1 - 0.0 - - - - - - -
07/09:30pm 13.3 NE 20 22 1010.2 - 0.0 - - - - - - -
07/09:00pm 13.1 ENE 18 20 1010.3 - 0.0 - - - - - - -
07/08:30pm 13.2 ENE 15 17 1011.0 - 0.0 - - - - - - -
07/08:00pm 13.6 ENE 15 17 1011.1 - 0.0 - - - - - - -
07/07:30pm 14.2 E 12 13 1011.4 - 0.0 - - - - - - -
07/07:00pm 15.0 E 9 10 1011.7 - 0.0 - - - - - - -
07/06:30pm 15.6 E 8 9 1012.0 - 0.0 - - - - - - -
07/06:00pm 15.9 SE 8 10 1011.9 - 0.0 - - - - - - -
07/05:30pm 16.2 SE 8 9 1012.3 - 0.0 - - - - - - -
07/05:00pm 16.8 SSE 8 10 1012.6 - 0.0 - - - - - - -
07/04:30pm 17.2 SE 8 10 1012.9 - 0.0 - - - - - - -
07/04:00pm 16.9 SSE 7 10 1013.1 - 0.0 - - - - - - -
07/03:30pm 17.5 SE 8 11 1013.3 - 0.0 - - - - - - -
07/03:00pm 18.0 SSE 5 8 1013.6 - 0.0 - - - - - - -
07/02:30pm 17.5 WNW 5 7 1014.2 - 0.0 - - - - - - -
07/02:00pm 17.2 W 7 9 1014.3 - 0.0 - - - - - - -
07/01:30pm 17.0 WNW 7 8 1014.5 - 0.0 - - - - - - -
07/01:00pm 16.7 WNW 7 8 1014.7 - 0.0 - - - - - - -
07/12:30pm 16.9 W 8 10 1015.2 - 0.0 - - - - - - -
07/12:00pm 17.0 W 8 10 1015.1 - 0.0 - - - - - - -
07/11:30am 17.2 W 9 11 1015.3 - 0.0 - - - - - - -
07/11:00am 16.3 W 9 10 1015.4 - 0.0 - - - - - - -
07/10:30am 16.7 W 9 10 1015.3 - 0.0 - - - - - - -
07/10:00am 16.4 W 9 11 1015.4 - 0.0 - - - - - - -
07/09:30am 16.2 WNW 10 11 1015.7 - 0.0 - - - - - - -
07/09:00am 15.2 WNW 11 13 1015.6 - 0.0 - - - - - - -
07/08:30am 14.7 WNW 12 14 1015.7 - 0.0 - - - - - - -
07/08:00am 14.2 WNW 14 16 1015.5 - 0.0 - - - - - - -
07/07:30am 13.9 WNW 11 14 1015.2 - 0.0 - - - - - - -
07/07:00am 13.3 W 12 14 1014.9 - 0.0 - - - - - - -
07/06:30am 13.0 W 12 14 1014.7 - 0.0 - - - - - - -
07/06:00am 12.4 W 13 14 1014.2 - 0.0 - - - - - - -
07/05:30am 12.3 W 12 14 1014.2 - 0.0 - - - - - - -
07/05:00am 12.3 W 13 15 1013.9 - 0.0 - - - - - - -
07/04:30am 12.4 W 13 14 1013.6 - 0.0 - - - - - - -
07/04:00am 12.4 WSW 13 14 1013.6 - 0.0 - - - - - - -
07/03:30am 12.5 WSW 15 16 1013.6 - 0.0 - - - - - - -
07/03:00am 12.8 WSW 13 15 1013.6 - 0.0 - - - - - - -
07/02:30am 12.7 WSW 16 18 1014.0 - 0.0 - - - - - - -
07/02:00am 12.7 WSW 18 19 1014.2 - 0.0 - - - - - - -
07/01:30am 12.7 WSW 18 21 1014.3 - 0.0 - - - - - - -
07/01:00am 12.8 WSW 19 22 1014.4 - 0.0 - - - - - - -
07/12:30am 12.9 WSW 21 24 1014.5 - 0.0 - - - - - - -
07/12:00am 12.9 WSW 22 25 1014.0 - 0.0 - - - - - - -
 
Date/Time
EDT
Temp
°C
Wind Pressure Rain since
9am
mm
Weather Cloud Vis
km
Sea
Height
m
Swell
Dir  Spd
kts
Gust
kts
hPa Trend Height
m
Period
s
Dir
06/11:30pm 12.9 WSW 24 27 1014.4 - 0.0 - - - - - - -
06/11:00pm 12.9 WSW 25 29 1014.0 - 0.0 - - - - - - -
06/10:30pm 12.9 WSW 25 29 1013.9 - 0.0 - - - - - - -
06/10:00pm 13.2 W 23 28 1014.1 - 0.0 - - - - - - -
06/09:30pm 13.1 W 23 26 1013.8 - 0.0 - - - - - - -
06/09:00pm 13.3 W 23 26 1013.5 - 0.0 - - - - - - -
06/08:30pm 13.2 W 24 28 1013.5 - 0.0 - - - - - - -
06/08:00pm 13.7 W 26 30 1013.6 - 0.0 - - - - - - -
06/07:30pm 14.2 W 28 31 1013.5 - 0.0 - - - - - - -
06/07:00pm 14.6 W 28 33 1013.1 - 0.0 - - - - - - -
06/06:30pm 14.9 W 31 35 1012.6 - 0.0 - - - - - - -
06/06:00pm 14.4 W 29 33 1012.1 - 0.0 - - - - - - -
06/05:30pm 14.9 W 30 33 1012.1 - 0.0 - - - - - - -
06/05:00pm 15.4 W 27 31 1012.5 - 0.0 - - - - - - -
06/04:30pm 15.9 W 27 31 1012.6 - 0.0 - - - - - - -
06/04:00pm 15.7 W 27 32 1012.4 - 0.0 - - - - - - -
06/03:30pm 16.8 W 27 31 1012.5 - 0.0 - - - - - - -
06/03:00pm 17.2 W 26 30 1012.2 - 0.0 - - - - - - -
06/02:30pm 16.9 W 25 29 1012.3 - 0.0 - - - - - - -
06/02:00pm 16.7 WSW 27 31 1012.6 - 0.0 - - - - - - -
06/01:30pm 15.9 W 26 30 1012.7 - 0.0 - - - - - - -
06/01:00pm 15.6 W 23 27 1012.8 - 0.0 - - - - - - -
06/12:30pm 15.7 W 23 27 1012.6 - 0.0 - - - - - - -
06/12:00pm 17.3 W 20 23 1012.5 - 0.0 - - - - - - -
06/11:30am 16.2 W 19 22 1012.6 - 0.0 - - - - - - -
06/11:00am 15.2 W 22 26 1012.9 - 0.0 - - - - - - -
06/10:30am 14.2 W 23 26 1012.8 - 0.0 - - - - - - -
06/10:00am 14.1 WSW 22 25 1013.0 - 0.0 - - - - - - -
06/09:30am 13.5 W 19 21 1012.8 - 0.0 - - - - - - -
06/09:00am 13.2 W 21 24 1012.4 - 0.0 - - - - - - -
06/08:30am 13.0 W 19 22 1012.8 - 0.0 - - - - - - -
06/08:00am 12.8 WSW 22 24 1012.8 - 0.0 - - - - - - -
06/07:30am 12.6 WSW 21 25 1012.7 - 0.0 - - - - - - -
06/07:00am 12.6 WSW 21 24 1012.6 - 0.0 - - - - - - -
06/06:30am 12.5 WSW 19 23 1012.2 - 0.0 - - - - - - -
06/06:00am 12.0 WSW 15 19 1011.6 - 0.0 - - - - - - -
06/05:30am 11.7 WSW 13 16 1011.4 - 0.0 - - - - - - -
06/05:00am 11.5 WSW 12 14 1011.1 - 0.0 - - - - - - -
06/04:30am 11.5 WSW 12 14 1010.6 - 0.0 - - - - - - -
06/04:00am 11.7 WSW 14 16 1011.2 - 0.0 - - - - - - -
06/03:30am 12.0 W 16 18 1011.6 - 0.0 - - - - - - -
06/03:00am 11.9 WSW 16 18 1011.3 - 0.0 - - - - - - -
06/02:30am 12.1 W 17 19 1011.5 - 0.0 - - - - - - -
06/02:00am 12.1 W 16 19 1011.9 - 0.0 - - - - - - -
06/01:30am 12.3 W 15 18 1012.3 - 0.0 - - - - - - -
06/01:00am 12.5 W 18 20 1012.6 - 0.0 - - - - - - -
06/12:30am 12.6 W 16 19 1013.1 - 0.0 - - - - - - -
06/12:00am 12.6 W 19 22 1013.1 - 0.0 - - - - - - -
 
Date/Time
EDT
Temp
°C
Wind Pressure Rain since
9am
mm
Weather Cloud Vis
km
Sea
Height
m
Swell
Dir  Spd
kts
Gust
kts
hPa Trend Height
m
Period
s
Dir
05/11:30pm 12.6 WSW 19 22 1013.3 - 0.0 - - - - - - -
05/11:00pm 12.9 WSW 20 23 1013.7 - 0.0 - - - - - - -
05/10:30pm 12.9 WSW 17 19 1014.1 - 0.0 - - - - - - -
05/10:00pm 13.0 W 16 18 1014.4 - 0.0 - - - - - - -
05/09:30pm 12.7 WSW 13 15 1013.2 - 0.0 - - - - - - -
05/09:00pm 13.1 WSW 16 19 1013.1 - 0.0 - - - - - - -
05/08:30pm 13.1 WSW 15 18 1013.3 - 0.0 - - - - - - -
05/08:00pm 13.4 WSW 16 18 1013.0 - 0.0 - - - - - - -
05/07:30pm 13.9 WSW 19 21 1013.0 - 0.0 - - - - - - -
05/07:00pm 14.1 WSW 20 23 1012.3 - 0.0 - - - - - - -
05/06:30pm 14.9 WSW 21 25 1011.9 - 0.0 - - - - - - -
05/06:00pm 15.1 WSW 23 26 1011.7 - 0.0 - - - - - - -
05/05:30pm 16.3 WSW 23 26 1011.7 - 0.0 - - - - - - -
05/05:00pm 15.9 W 24 27 1011.9 - 0.0 - - - - - - -
05/04:30pm 15.6 WSW 25 28 1011.4 - 0.0 - - - - - - -
05/04:00pm 17.5 W 25 28 1010.6 - 0.0 - - - - - - -
05/03:30pm 17.6 W 27 31 1010.9 - 0.0 - - - - - - -
05/03:00pm 17.5 W 29 33 1010.5 - 0.0 - - - - - - -
05/02:30pm 17.5 W 30 32 1010.3 - 0.0 - - - - - - -
05/02:00pm 17.5 W 28 33 1010.3 - 0.0 - - - - - - -
05/01:30pm 17.9 W 24 29 1010.7 - 0.0 - - - - - - -
05/01:00pm 17.6 W 26 32 1010.6 - 0.0 - - - - - - -
05/12:30pm 17.7 W 29 36 1010.0 - 0.0 - - - - - - -
05/12:00pm 17.4 W 29 33 1009.9 - 0.0 - - - - - - -
05/11:30am 17.3 W 30 34 1009.6 - 0.0 - - - - - - -
05/11:00am 17.1 W 29 33 1009.6 - 0.0 - - - - - - -
05/10:30am 15.6 W 26 30 1009.8 - 0.0 - - - - - - -
05/10:00am 16.3 WSW 25 29 1009.9 - 0.0 - - - - - - -
05/09:30am 14.3 WSW 25 31 1009.6 - 0.0 - - - - - - -
05/09:00am 15.4 WSW 32 35 1008.2 - 0.0 - - - - - - -
05/08:30am 15.0 WSW 29 35 1008.4 - 0.0 - - - - - - -
05/08:00am 15.0 SW 26 32 1007.9 - 0.0 - - - - - - -
05/07:30am 15.2 WSW 29 34 1006.9 - 0.0 - - - - - - -
05/07:00am 15.4 W 33 39 1005.8 - 0.0 - - - - - - -
05/06:30am 15.6 W 33 37 1005.2 - 0.0 - - - - - - -
05/06:00am 15.9 W 39 44 1004.0 - 0.0 - - - - - - -
05/05:30am 17.2 W 39 44 1003.5 - 0.0 - - - - - - -
05/05:10am 19.4 W 34 56 1003.7 - 0.0 - - - - - - -
05/05:05am 21.2 W 46 56 1002.6 - 0.0 - - - - - - -
05/05:04am 21.6 WNW 31 56 1002.7 - 0.0 - - - - - - -
05/05:00am 22.3 WNW 28 34 1002.7 - 0.0 - - - - - - -
05/04:58am 22.2 NW 27 32 1002.8 - 0.0 - - - - - - -
05/04:30am 21.0 NNW 23 26 1002.6 - 0.0 - - - - - - -
05/04:00am 20.5 NNW 21 24 1002.4 - 0.0 - - - - - - -
05/03:30am 20.5 NNW 18 26 1002.1 - 0.0 - - - - - - -
05/03:00am 21.1 N 20 27 1001.9 - 0.0 - - - - - - -
05/02:30am 21.5 N 22 28 1002.6 - 0.0 - - - - - - -
05/02:00am 21.1 N 23 27 1002.7 - 0.0 - - - - - - -
05/01:30am 21.4 N 23 27 1003.1 - 0.0 - - - - - - -
05/01:00am 21.3 N 19 24 1003.5 - 0.0 - - - - - - -
05/12:30am 21.1 N 16 20 1004.0 - 0.0 - - - - - - -
05/12:00am 20.8 N 18 24 1004.4 - 0.0 - - - - - - -

Other Formats:

Comma delimited format used in spreadsheet applications
http://www.bom.gov.au/fwo/IDV60701/IDV60701.94949.axf

JavaScript Object Notation format (JSON) in row-major order
http://www.bom.gov.au/fwo/IDV60701/IDV60701.94949.json